Time;durP1;ratioP1;P1;durP2;ratioP2;P2;SDS_P1;SDS_P2;PMS_P1;PMS_P2;Temp;Humidity;BMP_temperature;BMP_pressure;BME280_temperature;BME280_humidity;BME280_pressure;Samples;Min_cycle;Max_cycle;Signal;HPM_P1;HPM_P2
2022/09/14 09:46:06;;;;;;;5.50;2.67;;;19.60;99.90;;;;;;732326;24;21689;-90
2022/09/14 09:48:36;;;;;;;5.70;2.65;;;19.80;99.90;;;;;;4764669;30;20581;-91
2022/09/14 09:51:10;;;;;;;5.78;2.67;;;19.80;99.90;;;;;;4781649;29;20098;-91
2022/09/14 09:53:51;;;;;;;7.35;3.00;;;19.90;99.90;;;;;;4766845;30;20051;-91
2022/09/14 09:56:25;;;;;;;2.97;2.35;;;20.00;99.90;;;;;;4755304;30;20079;-91
2022/09/14 09:58:53;;;;;;;5.10;2.17;;;20.10;99.90;;;;;;4767011;29;20043;-92
2022/09/14 10:01:32;;;;;;;9.85;2.78;;;20.10;99.90;;;;;;4762168;30;20055;-92
2022/09/14 10:04:27;;;;;;;4.43;2.53;;;20.10;99.90;;;;;;4749299;30;20485;-93
2022/09/14 10:06:56;;;;;;;5.82;2.85;;;20.20;99.90;;;;;;4768305;30;20047;-92
2022/09/14 10:09:26;;;;;;;7.57;2.95;;;20.20;99.90;;;;;;4755841;30;20043;-92
2022/09/14 10:12:03;;;;;;;4.78;2.65;;;20.20;99.90;;;;;;4747000;30;20047;-92
2022/09/14 10:14:32;;;;;;;7.15;3.38;;;20.30;99.90;;;;;;4770590;30;20104;-93
2022/09/14 10:17:07;;;;;;;5.72;3.13;;;20.30;99.90;;;;;;4771138;30;20525;-91
2022/09/14 10:19:36;;;;;;;8.02;3.58;;;20.30;99.90;;;;;;4770031;30;20082;-91
2022/09/14 10:22:27;;;;;;;7.68;3.03;;;20.30;99.90;;;;;;4771004;30;20055;-90
2022/09/14 10:25:01;;;;;;;5.47;2.63;;;20.30;99.90;;;;;;4768147;30;20052;-90
2022/09/14 10:27:38;;;;;;;7.07;3.05;;;20.30;99.90;;;;;;4750906;30;20585;-92
2022/09/14 10:30:12;;;;;;;5.75;2.58;;;20.50;99.90;;;;;;4753977;30;20039;-92
2022/09/14 10:32:48;;;;;;;5.70;2.72;;;20.50;99.90;;;;;;4757991;30;20624;-90
2022/09/14 10:35:17;;;;;;;6.35;2.85;;;20.60;99.90;;;;;;4751210;30;20104;-92
2022/09/14 10:38:23;;;;;;;6.55;2.30;;;20.60;99.90;;;;;;4753865;30;20597;-91
2022/09/14 10:41:11;;;;;;;7.22;2.75;;;20.60;99.90;;;;;;4764866;30;20138;-91
2022/09/14 10:43:47;;;;;;;8.02;2.30;;;20.60;99.90;;;;;;4755881;29;20055;-92
2022/09/14 10:46:23;;;;;;;6.20;2.80;;;20.70;99.90;;;;;;4770606;30;20055;-90
2022/09/14 10:49:18;;;;;;;6.53;2.95;;;20.70;99.90;;;;;;4759519;30;20047;-90
2022/09/14 10:51:55;;;;;;;5.68;2.72;;;20.70;99.90;;;;;;4759771;30;20055;-89
2022/09/14 10:54:44;;;;;;;7.05;2.95;;;20.70;99.90;;;;;;4754045;30;20043;-91
2022/09/14 10:57:11;;;;;;;9.57;2.97;;;20.70;99.90;;;;;;4752207;30;20048;-90
2022/09/14 10:59:55;;;;;;;7.38;2.53;;;20.70;99.90;;;;;;4755435;30;20138;-89
2022/09/14 11:02:41;;;;;;;7.35;3.15;;;20.70;99.90;;;;;;4767904;30;20146;-90
2022/09/14 11:05:20;;;;;;;8.15;2.65;;;20.70;99.90;;;;;;4767785;30;20058;-89
2022/09/14 11:07:56;;;;;;;4.40;2.40;;;20.70;99.90;;;;;;4758331;30;20051;-89
2022/09/14 11:10:32;;;;;;;7.07;2.28;;;20.80;99.90;;;;;;4758420;30;20598;-90
2022/09/14 11:13:22;;;;;;;4.68;2.67;;;20.70;99.90;;;;;;4768092;29;20061;-90
2022/09/14 11:16:11;;;;;;;5.50;2.25;;;20.70;99.90;;;;;;4752650;30;20162;-90
2022/09/14 11:18:51;;;;;;;5.18;2.67;;;20.70;99.90;;;;;;4778675;29;20117;-90
2022/09/14 11:21:48;;;;;;;4.13;2.22;;;20.70;99.90;;;;;;4765374;30;20489;-90
2022/09/14 11:24:28;;;;;;;4.18;2.22;;;20.70;99.90;;;;;;4768688;30;20101;-90
2022/09/14 11:27:17;;;;;;;4.47;2.35;;;20.80;99.90;;;;;;4753731;30;20096;-90
2022/09/14 11:29:56;;;;;;;4.57;2.08;;;20.90;99.90;;;;;;4770032;30;20100;-90
2022/09/14 11:32:32;;;;;;;7.40;2.70;;;20.90;99.90;;;;;;4755981;30;20054;-89
2022/09/14 11:35:10;;;;;;;3.47;2.35;;;20.80;99.90;;;;;;4756666;30;20052;-90
2022/09/14 11:37:40;;;;;;;7.43;2.25;;;20.80;99.90;;;;;;4768362;30;20082;-89
2022/09/14 11:40:17;;;;;;;5.40;2.00;;;20.80;99.90;;;;;;4750164;29;20047;-88
2022/09/14 11:42:52;;;;;;;5.57;2.50;;;20.80;99.90;;;;;;4764332;30;20058;-90
2022/09/14 11:45:30;;;;;;;3.72;2.05;;;20.70;99.90;;;;;;4770665;29;20059;-92
2022/09/14 11:48:12;;;;;;;4.63;2.13;;;20.80;99.90;;;;;;4764831;30;20063;-90
2022/09/14 11:51:26;;;;;;;5.03;2.07;;;20.80;99.90;;;;;;4758985;29;20055;-90
2022/09/14 11:53:53;;;;;;;3.35;2.08;;;20.90;99.90;;;;;;4745048;30;20505;-91
2022/09/14 11:56:30;;;;;;;5.95;1.98;;;21.00;99.90;;;;;;4770511;30;20055;-90
2022/09/14 11:59:02;;;;;;;4.70;2.45;;;21.00;99.90;;;;;;4752799;29;20049;-90
2022/09/14 12:01:38;;;;;;;5.47;2.10;;;21.00;99.90;;;;;;4769384;30;20051;-88
2022/09/14 12:04:11;;;;;;;3.95;1.88;;;21.10;99.90;;;;;;4769536;30;20058;-90
2022/09/14 12:06:38;;;;;;;4.70;2.05;;;21.20;99.90;;;;;;4758785;29;20097;-91
2022/09/14 12:09:19;;;;;;;7.95;2.17;;;21.30;99.90;;;;;;4767639;30;20047;-90
2022/09/14 12:11:48;;;;;;;4.90;1.55;;;21.30;99.90;;;;;;4764546;30;20062;-91
2022/09/14 12:14:29;;;;;;;5.85;1.90;;;21.30;99.90;;;;;;4754334;30;20410;-90
2022/09/14 12:17:21;;;;;;;3.45;1.90;;;21.40;99.90;;;;;;4751966;29;20146;-89
2022/09/14 12:20:41;;;;;;;4.43;1.73;;;21.50;99.90;;;;;;4762752;30;20062;-89
2022/09/14 12:23:37;;;;;;;2.92;1.58;;;21.60;99.90;;;;;;4764097;30;20516;-88
2022/09/14 12:26:05;;;;;;;2.17;1.15;;;21.70;99.90;;;;;;4755732;29;20055;-90
2022/09/14 12:28:38;;;;;;;8.77;1.50;;;21.70;99.90;;;;;;4746686;30;20145;-90
2022/09/14 12:31:12;;;;;;;4.63;1.75;;;21.80;99.90;;;;;;4753738;30;20078;-90
2022/09/14 12:34:03;;;;;;;2.78;1.48;;;21.90;99.90;;;;;;4753588;30;20521;-90
2022/09/14 12:36:36;;;;;;;3.65;1.38;;;21.90;99.90;;;;;;4770836;30;20055;-92
2022/09/14 12:39:20;;;;;;;3.17;1.67;;;22.00;98.70;;;;;;4750726;30;20055;-95
2022/09/14 12:41:47;;;;;;;2.53;1.50;;;22.00;98.60;;;;;;4760842;29;20062;-90
2022/09/14 12:44:38;;;;;;;2.40;1.38;;;22.10;99.00;;;;;;4761448;30;20692;-91
2022/09/14 12:47:24;;;;;;;5.32;1.52;;;22.10;99.00;;;;;;4758447;30;20575;-91
2022/09/14 12:49:57;;;;;;;3.25;1.40;;;22.10;99.40;;;;;;4756486;30;20062;-89
2022/09/14 12:52:55;;;;;;;2.90;1.40;;;22.00;98.90;;;;;;4738892;30;20125;-91
2022/09/14 12:55:31;;;;;;;4.13;1.70;;;22.00;98.30;;;;;;4762733;29;20050;-92
2022/09/14 12:58:23;;;;;;;1.48;1.25;;;22.00;98.60;;;;;;4766549;29;20055;-90
2022/09/14 13:00:59;;;;;;;1.45;1.10;;;22.10;97.60;;;;;;4765866;29;20061;-89
2022/09/14 13:03:52;;;;;;;2.97;1.25;;;22.00;97.50;;;;;;4773008;29;20062;-90
2022/09/14 13:06:21;;;;;;;2.53;1.33;;;22.00;98.00;;;;;;4769578;29;20047;-90
2022/09/14 13:08:55;;;;;;;2.70;1.30;;;22.10;97.60;;;;;;4759296;30;20051;-89
2022/09/14 13:11:31;;;;;;;1.92;1.30;;;22.10;98.00;;;;;;4747556;30;20045;-90
2022/09/14 13:14:00;;;;;;;3.70;1.10;;;22.10;98.00;;;;;;4766051;30;20051;-90
2022/09/14 13:16:43;;;;;;;2.70;1.40;;;22.20;97.80;;;;;;4753385;30;20047;-90
2022/09/14 13:19:33;;;;;;;2.85;1.20;;;22.20;97.80;;;;;;4764793;30;20060;-90
2022/09/14 13:22:01;;;;;;;2.13;0.98;;;22.30;96.80;;;;;;4765494;30;20134;-91
2022/09/14 13:24:44;;;;;;;2.70;1.30;;;22.30;97.50;;;;;;4751905;29;20175;-91
2022/09/14 13:27:20;;;;;;;;;;;22.30;98.00;;;;;;4764714;29;20153;-90
2022/09/14 13:29:55;;;;;;;2.65;1.23;;;22.30;97.20;;;;;;4764342;29;19942;-89
2022/09/14 13:32:22;;;;;;;5.13;1.70;;;22.20;96.70;;;;;;4757375;29;20067;-89
2022/09/14 13:34:51;;;;;;;2.60;1.20;;;22.20;95.70;;;;;;4761951;29;20410;-90
2022/09/14 13:37:20;;;;;;;2.28;1.50;;;22.30;95.60;;;;;;4749544;29;20051;-89
2022/09/14 13:39:53;;;;;;;3.88;1.20;;;22.30;96.60;;;;;;4746425;29;20134;-88
2022/09/14 13:42:22;;;;;;;5.05;1.40;;;22.30;96.20;;;;;;4761738;30;20108;-92
2022/09/14 13:44:51;;;;;;;3.13;1.23;;;22.40;95.50;;;;;;4770528;30;20059;-92
2022/09/14 13:47:21;;;;;;;7.60;1.48;;;22.40;96.80;;;;;;4770652;30;20059;-92
2022/09/14 13:49:51;;;;;;;3.97;1.50;;;22.40;96.60;;;;;;4764285;30;20074;-91
2022/09/14 13:52:21;;;;;;;6.22;1.65;;;22.30;96.70;;;;;;4774976;29;20055;-94
2022/09/14 13:54:51;;;;;;;2.65;1.42;;;22.30;97.10;;;;;;4753934;29;20052;-91
2022/09/14 13:57:21;;;;;;;2.20;1.40;;;22.30;97.60;;;;;;4765319;30;20056;-92
2022/09/14 14:00:16;;;;;;;5.00;1.50;;;22.30;97.90;;;;;;4756788;30;20100;-91
2022/09/14 14:03:03;;;;;;;2.40;1.20;;;22.30;98.00;;;;;;4772515;30;20074;-91
2022/09/14 14:05:38;;;;;;;3.80;2.03;;;22.20;97.50;;;;;;4764875;30;20282;-91
2022/09/14 14:08:25;;;;;;;5.00;2.00;;;22.10;97.60;;;;;;4780264;29;20108;-91
2022/09/14 14:10:53;;;;;;;5.90;3.15;;;22.10;98.30;;;;;;4780928;30;20054;-91
2022/09/14 14:13:30;;;;;;;7.10;2.10;;;22.00;98.60;;;;;;4756419;30;20047;-92
2022/09/14 14:16:19;;;;;;;4.13;1.80;;;22.00;99.50;;;;;;4768954;30;20611;-92
2022/09/14 14:18:55;;;;;;;4.85;1.27;;;22.00;97.90;;;;;;4766238;29;20098;-92
2022/09/14 14:21:29;;;;;;;3.15;1.20;;;22.00;97.70;;;;;;4749345;30;20051;-91
2022/09/14 14:24:16;;;;;;;3.20;1.10;;;22.00;98.30;;;;;;4757307;30;20130;-92
2022/09/14 14:26:49;;;;;;;1.98;1.05;;;22.10;97.40;;;;;;4765485;30;20047;-93
2022/09/14 14:29:17;;;;;;;3.90;1.30;;;22.20;95.90;;;;;;4786608;30;20043;-92
2022/09/14 14:31:46;;;;;;;4.85;1.30;;;22.20;96.20;;;;;;4758660;30;20044;-92
2022/09/14 14:34:25;;;;;;;2.40;1.15;;;22.30;97.80;;;;;;4768572;30;20388;-92
2022/09/14 14:36:52;;;;;;;1.52;1.00;;;22.40;97.10;;;;;;4757476;30;20051;-93
2022/09/14 14:39:21;;;;;;;3.97;1.50;;;22.50;96.60;;;;;;4758594;30;20044;-92
2022/09/14 14:41:50;;;;;;;2.42;1.50;;;22.50;95.60;;;;;;4752239;30;20039;-91
2022/09/14 14:44:22;;;;;;;2.10;1.52;;;22.40;96.50;;;;;;4752370;29;20043;-92
2022/09/14 14:46:50;;;;;;;2.83;1.40;;;22.40;95.40;;;;;;4753840;30;20051;-92
2022/09/14 14:49:19;;;;;;;4.20;2.30;;;22.40;97.00;;;;;;4771491;30;20043;-92
2022/09/14 14:51:47;;;;;;;2.05;1.27;;;22.30;96.50;;;;;;4756512;30;20163;-91
2022/09/14 14:54:16;;;;;;;5.15;1.85;;;22.30;96.90;;;;;;4753384;30;20051;-91
2022/09/14 14:56:50;;;;;;;3.28;1.02;;;22.40;97.40;;;;;;4749134;30;20140;-92
2022/09/14 14:59:20;;;;;;;2.05;1.40;;;22.40;97.00;;;;;;4769264;29;20047;-90
2022/09/14 15:01:48;;;;;;;3.25;1.63;;;22.40;96.70;;;;;;4751050;30;20137;-89
2022/09/14 15:04:16;;;;;;;4.47;1.30;;;22.30;97.40;;;;;;4752485;29;20128;-89
2022/09/14 15:06:46;;;;;;;2.72;1.48;;;22.20;97.20;;;;;;4743468;29;20070;-89
2022/09/14 15:09:18;;;;;;;2.33;1.38;;;22.10;96.90;;;;;;4765384;30;20047;-90
2022/09/14 15:11:46;;;;;;;1.85;1.20;;;22.10;97.90;;;;;;4753845;29;20057;-90
2022/09/14 15:14:16;;;;;;;5.05;1.83;;;22.10;97.30;;;;;;4773895;30;20169;-89
2022/09/14 15:16:44;;;;;;;2.85;1.38;;;22.00;98.10;;;;;;4783343;29;20421;-90
2022/09/14 15:19:11;;;;;;;4.22;1.30;;;22.00;98.90;;;;;;4768765;30;20051;-90
2022/09/14 15:21:40;;;;;;;2.13;1.30;;;22.00;98.50;;;;;;4761770;30;20150;-91
2022/09/14 15:24:09;;;;;;;2.47;1.30;;;22.00;98.90;;;;;;4768940;29;20635;-89
2022/09/14 15:26:37;;;;;;;5.28;1.40;;;22.00;99.00;;;;;;4756166;29;20075;-89
2022/09/14 15:29:04;;;;;;;4.13;1.10;;;21.90;99.20;;;;;;4753935;30;20048;-90
2022/09/14 15:31:32;;;;;;;3.70;1.60;;;22.00;99.60;;;;;;4759097;29;20070;-89
2022/09/14 15:33:59;;;;;;;1.85;1.27;;;22.00;99.90;;;;;;4749610;30;20100;-88
2022/09/14 15:36:37;;;;;;;2.33;1.50;;;22.00;99.80;;;;;;4752521;30;20776;-90
2022/09/14 15:39:06;;;;;;;4.65;1.48;;;22.10;99.20;;;;;;4765614;29;20051;-89
2022/09/14 15:41:33;;;;;;;7.03;1.50;;;22.10;99.20;;;;;;4770222;30;20542;-89
2022/09/14 15:44:02;;;;;;;4.38;1.23;;;22.10;99.30;;;;;;4752563;29;20116;-89
2022/09/14 15:46:30;;;;;;;3.72;1.27;;;22.00;99.80;;;;;;4773673;30;20130;-88
2022/09/14 15:48:57;;;;;;;3.13;1.42;;;22.00;99.70;;;;;;4752561;30;20055;-90
2022/09/14 15:51:25;;;;;;;2.75;1.42;;;21.90;99.90;;;;;;4753971;30;20078;-89
2022/09/14 15:53:52;;;;;;;1.67;1.40;;;21.90;99.90;;;;;;4767951;30;20443;-90
2022/09/14 15:56:20;;;;;;;3.08;1.40;;;21.80;99.90;;;;;;4755725;30;20051;-89
2022/09/14 15:58:47;;;;;;;3.45;1.40;;;21.80;99.90;;;;;;4755596;30;20155;-88
2022/09/14 16:01:16;;;;;;;2.05;1.23;;;21.80;99.90;;;;;;4754232;29;20045;-90
2022/09/14 16:03:44;;;;;;;2.08;1.38;;;21.80;99.90;;;;;;4770111;30;20054;-89
2022/09/14 16:06:13;;;;;;;5.88;1.65;;;21.70;99.90;;;;;;4763063;30;20059;-90
2022/09/14 16:08:41;;;;;;;5.85;1.25;;;21.70;99.90;;;;;;4749656;29;20087;-89
2022/09/14 16:11:08;;;;;;;4.32;1.45;;;21.70;99.90;;;;;;4744558;30;20058;-89
2022/09/14 16:13:36;;;;;;;4.30;1.40;;;21.70;99.90;;;;;;4761172;30;20051;-89
2022/09/14 16:16:09;;;;;;;2.85;1.52;;;21.70;99.90;;;;;;4760652;30;20592;-89
2022/09/14 16:18:37;;;;;;;6.32;2.17;;;21.60;99.90;;;;;;4752405;30;20055;-90
2022/09/14 16:21:04;;;;;;;4.38;1.17;;;21.60;99.90;;;;;;4744094;30;20061;-88
2022/09/14 16:23:36;;;;;;;4.95;1.60;;;21.50;99.90;;;;;;4734380;30;20056;-89
2022/09/14 16:26:12;;;;;;;5.80;1.58;;;21.50;99.90;;;;;;4743583;30;20524;-90
2022/09/14 16:28:41;;;;;;;3.13;1.55;;;21.40;99.90;;;;;;4728700;30;20052;-89
2022/09/14 16:31:14;;;;;;;5.22;1.75;;;21.40;99.90;;;;;;4729360;30;20078;-89
2022/09/14 16:33:44;;;;;;;4.53;1.80;;;21.30;99.90;;;;;;4745512;30;20075;-90
2022/09/14 16:36:15;;;;;;;2.38;1.70;;;21.30;99.90;;;;;;4729201;30;20048;-89
2022/09/14 16:38:43;;;;;;;3.08;1.85;;;21.20;99.90;;;;;;4738121;30;20099;-89
2022/09/14 16:41:12;;;;;;;6.68;1.98;;;21.20;99.90;;;;;;4712099;30;20501;-89
2022/09/14 16:43:39;;;;;;;3.70;1.77;;;21.10;99.90;;;;;;4732062;30;20052;-91
2022/09/14 16:46:15;;;;;;;2.78;1.65;;;21.10;99.90;;;;;;4746030;30;20060;-87
2022/09/14 16:48:45;;;;;;;2.13;1.60;;;21.00;99.90;;;;;;4762693;30;20407;-87
2022/09/14 16:51:14;;;;;;;3.33;1.52;;;21.00;99.90;;;;;;4743989;29;20079;-87
2022/09/14 16:53:46;;;;;;;2.75;1.80;;;20.90;99.90;;;;;;4763911;30;20051;-88
2022/09/14 16:56:19;;;;;;;5.30;1.85;;;20.90;99.90;;;;;;4748133;30;20599;-87
2022/09/14 16:58:48;;;;;;;5.63;1.95;;;20.90;99.90;;;;;;4746812;29;20044;-86
2022/09/14 17:01:18;;;;;;;5.10;1.85;;;20.90;99.90;;;;;;4758849;30;20691;-88
2022/09/14 17:03:47;;;;;;;3.00;1.70;;;20.80;99.90;;;;;;4762452;30;21009;-88
2022/09/14 17:06:18;;;;;;;12.30;3.30;;;20.70;99.90;;;;;;4754965;30;20048;-88
2022/09/14 17:08:46;;;;;;;3.05;1.95;;;20.70;99.90;;;;;;4767053;30;20134;-88
2022/09/14 17:11:15;;;;;;;2.40;1.35;;;20.70;99.90;;;;;;4762320;30;20055;-88
2022/09/14 17:13:44;;;;;;;3.97;2.20;;;20.70;99.90;;;;;;4762811;30;20066;-89
2022/09/14 17:16:15;;;;;;;7.13;2.05;;;20.70;99.90;;;;;;4756804;29;20073;-89
2022/09/14 17:18:44;;;;;;;4.70;1.83;;;20.60;99.90;;;;;;4760951;30;20570;-90
2022/09/14 17:21:14;;;;;;;6.32;2.40;;;20.60;99.90;;;;;;4752276;30;20154;-90
2022/09/14 17:23:41;;;;;;;3.13;2.10;;;20.50;99.90;;;;;;4746816;30;20137;-89
2022/09/14 17:26:10;;;;;;;4.68;3.13;;;20.50;99.90;;;;;;4749040;30;20134;-90
2022/09/14 17:28:38;;;;;;;5.45;3.60;;;20.40;99.90;;;;;;4780530;29;20059;-90
2022/09/14 17:31:07;;;;;;;8.10;3.08;;;20.40;99.90;;;;;;4770940;30;20057;-90
2022/09/14 17:33:35;;;;;;;4.35;2.38;;;20.40;99.90;;;;;;4750116;30;20108;-90
2022/09/14 17:36:06;;;;;;;4.32;2.38;;;20.30;99.90;;;;;;4761007;30;20478;-89
2022/09/14 17:38:36;;;;;;;3.73;2.80;;;20.30;99.90;;;;;;4748700;30;20051;-90
2022/09/14 17:41:12;;;;;;;4.50;2.90;;;20.20;99.90;;;;;;4748233;30;20520;-90
2022/09/14 17:43:41;;;;;;;4.35;2.97;;;20.20;99.90;;;;;;4760792;29;20062;-90
2022/09/14 17:46:13;;;;;;;6.55;3.00;;;20.20;99.90;;;;;;4766674;30;20059;-91
2022/09/14 17:48:41;;;;;;;6.50;3.00;;;20.10;99.90;;;;;;4765352;29;20067;-90
2022/09/14 17:51:13;;;;;;;7.45;3.20;;;20.10;99.90;;;;;;4751459;30;20573;-90
2022/09/14 17:53:42;;;;;;;5.10;3.17;;;20.10;99.90;;;;;;4746192;30;20099;-91
2022/09/14 17:56:12;;;;;;;10.75;3.15;;;20.00;99.90;;;;;;4749374;30;20047;-90
2022/09/14 17:58:40;;;;;;;9.00;4.32;;;20.00;99.90;;;;;;4751439;29;20051;-90
2022/09/14 18:01:17;;;;;;;7.07;3.15;;;20.00;99.90;;;;;;4748961;29;20074;-90
2022/09/14 18:03:50;;;;;;;6.10;3.58;;;19.90;99.90;;;;;;4762524;29;20051;-90
2022/09/14 18:06:18;;;;;;;5.10;3.30;;;19.90;99.90;;;;;;4765226;30;20055;-90
2022/09/14 18:08:47;;;;;;;7.00;3.83;;;19.90;99.90;;;;;;4765161;30;20120;-91
2022/09/14 18:11:16;;;;;;;8.68;4.20;;;19.80;99.90;;;;;;4758344;30;20100;-90
2022/09/14 18:13:45;;;;;;;6.78;4.05;;;19.80;99.90;;;;;;4748836;30;20119;-90
2022/09/14 18:16:15;;;;;;;7.57;4.50;;;19.80;99.90;;;;;;4742789;30;20052;-90
2022/09/14 18:18:42;;;;;;;6.18;4.20;;;19.70;99.90;;;;;;4740030;30;20112;-90
2022/09/14 18:21:10;;;;;;;4.53;3.10;;;19.70;99.90;;;;;;4751292;30;20051;-90
2022/09/14 18:23:38;;;;;;;7.80;4.10;;;19.70;99.90;;;;;;4748766;29;20068;-90
2022/09/14 18:26:06;;;;;;;9.18;3.67;;;19.70;99.90;;;;;;4765633;30;20057;-90
2022/09/14 18:28:35;;;;;;;6.00;3.63;;;19.60;99.90;;;;;;4780963;29;20047;-90
2022/09/14 18:31:06;;;;;;;10.98;3.90;;;19.60;99.90;;;;;;4762865;30;20048;-90
2022/09/14 18:33:35;;;;;;;9.43;3.80;;;19.60;99.90;;;;;;4765094;30;20051;-91
2022/09/14 18:36:05;;;;;;;8.00;3.90;;;19.60;99.90;;;;;;4751081;30;20566;-90
2022/09/14 18:38:32;;;;;;;6.10;3.35;;;19.50;99.90;;;;;;4780246;29;20568;-90
2022/09/14 18:41:05;;;;;;;6.93;3.85;;;19.50;99.90;;;;;;4749381;30;20047;-91
2022/09/14 18:43:33;;;;;;;12.20;3.83;;;19.50;99.90;;;;;;4762382;29;20063;-91
2022/09/14 18:46:07;;;;;;;8.63;4.00;;;19.50;99.90;;;;;;4749106;29;20062;-90
2022/09/14 18:48:37;;;;;;;6.50;3.80;;;19.40;99.90;;;;;;4762858;30;20056;-92
2022/09/14 18:51:05;;;;;;;6.30;4.40;;;19.40;99.90;;;;;;4758435;30;20043;-92
2022/09/14 18:53:33;;;;;;;9.43;4.53;;;19.40;99.90;;;;;;4755424;30;20528;-91
2022/09/14 18:56:03;;;;;;;7.63;4.38;;;19.40;99.90;;;;;;4768998;30;20535;-91
2022/09/14 18:58:33;;;;;;;8.50;4.25;;;19.40;99.90;;;;;;4778092;29;20500;-91
2022/09/14 19:01:02;;;;;;;4.97;3.33;;;19.40;99.90;;;;;;4758654;29;20208;-91
2022/09/14 19:03:33;;;;;;;7.75;3.78;;;19.30;99.90;;;;;;4757773;30;20059;-91
2022/09/14 19:06:06;;;;;;;5.83;4.00;;;19.40;99.90;;;;;;4767450;29;20078;-91
2022/09/14 19:08:35;;;;;;;5.55;3.30;;;19.30;99.90;;;;;;4780465;30;20116;-91
2022/09/14 19:11:08;;;;;;;5.15;3.17;;;19.30;99.90;;;;;;4769677;30;20059;-91
2022/09/14 19:13:36;;;;;;;4.82;3.45;;;19.30;99.90;;;;;;4764577;30;20623;-91
2022/09/14 19:16:06;;;;;;;4.70;3.67;;;19.20;99.90;;;;;;4767149;30;20405;-91
2022/09/14 19:18:34;;;;;;;7.57;4.65;;;19.20;99.90;;;;;;4754086;30;20059;-91
2022/09/14 19:21:10;;;;;;;5.93;2.83;;;19.20;99.90;;;;;;4764008;30;20055;-91
2022/09/14 19:23:39;;;;;;;8.10;3.33;;;19.20;99.90;;;;;;4762179;30;20166;-92
2022/09/14 19:26:14;;;;;;;6.18;3.60;;;19.20;99.90;;;;;;4747939;29;20174;-92
2022/09/14 19:28:43;;;;;;;7.03;3.90;;;19.20;99.90;;;;;;4753389;30;20054;-91
2022/09/14 19:31:13;;;;;;;9.38;4.13;;;19.20;99.90;;;;;;4754216;29;20054;-91
2022/09/14 19:33:41;;;;;;;5.93;3.85;;;19.20;99.90;;;;;;4764680;30;20078;-93
2022/09/14 19:36:15;;;;;;;6.27;3.50;;;19.20;99.90;;;;;;4745000;30;20052;-91
2022/09/14 19:38:43;;;;;;;5.25;3.25;;;19.30;99.90;;;;;;4782691;30;20071;-93
2022/09/14 19:41:11;;;;;;;5.70;3.35;;;19.30;99.90;;;;;;4763892;30;20067;-92
2022/09/14 19:43:39;;;;;;;6.50;4.00;;;19.30;99.90;;;;;;4753077;30;20059;-92
2022/09/14 19:46:16;;;;;;;5.55;3.25;;;19.30;99.90;;;;;;4769945;30;20047;-93
2022/09/14 19:48:45;;;;;;;4.78;3.55;;;19.30;99.90;;;;;;4766523;30;20097;-92
2022/09/14 19:51:17;;;;;;;6.25;3.47;;;19.30;99.90;;;;;;4765239;30;20052;-93
2022/09/14 19:53:47;;;;;;;7.30;3.83;;;19.30;99.90;;;;;;4766693;30;20053;-93
2022/09/14 19:56:18;;;;;;;8.23;3.90;;;19.30;99.90;;;;;;4750711;29;20163;-91
2022/09/14 19:58:48;;;;;;;8.32;3.95;;;19.30;99.90;;;;;;4750839;29;20065;-92
2022/09/14 20:01:18;;;;;;;8.85;3.58;;;19.30;99.90;;;;;;4772860;29;20543;-93
2022/09/14 20:03:47;;;;;;;6.00;3.90;;;19.30;99.90;;;;;;4760888;29;20127;-92
2022/09/14 20:06:21;;;;;;;6.40;3.90;;;19.30;99.90;;;;;;4753909;29;20055;-94
2022/09/14 20:08:53;;;;;;;7.05;3.67;;;19.30;99.90;;;;;;4769446;29;20544;-92
2022/09/14 20:11:23;;;;;;;6.28;3.15;;;19.40;99.90;;;;;;4757479;29;20596;-93
2022/09/14 20:13:56;;;;;;;9.02;3.58;;;19.40;99.90;;;;;;4772053;29;20140;-92
2022/09/14 20:16:27;;;;;;;4.97;3.38;;;19.40;99.90;;;;;;4756544;29;20055;-92
2022/09/14 20:18:57;;;;;;;5.53;3.80;;;19.40;99.90;;;;;;4768763;29;20051;-95
2022/09/14 20:21:26;;;;;;;6.28;3.60;;;19.40;99.90;;;;;;4771873;29;20066;-92
2022/09/14 20:23:56;;;;;;;6.60;3.22;;;19.50;99.90;;;;;;4755778;29;20050;-93
2022/09/14 20:26:44;;;;;;;4.40;3.22;;;19.50;99.90;;;;;;4776529;29;20496;-94
2022/09/14 20:29:11;;;;;;;4.45;2.85;;;19.50;99.90;;;;;;4751466;29;20039;-93
2022/09/14 20:31:38;;;;;;;4.72;2.70;;;19.50;99.90;;;;;;4752850;29;20419;-94
2022/09/14 20:34:06;;;;;;;5.15;3.08;;;19.50;99.90;;;;;;4756033;29;20047;-93
2022/09/14 20:36:34;;;;;;;5.85;3.10;;;19.60;99.90;;;;;;4766927;29;20047;-94
2022/09/14 20:39:02;;;;;;;6.20;2.90;;;19.60;99.90;;;;;;4754751;30;20047;-92
2022/09/14 20:41:32;;;;;;;4.78;2.65;;;19.60;99.90;;;;;;4765392;29;20059;-95
2022/09/14 20:44:02;;;;;;;;;;;19.70;99.90;;;;;;4757837;29;20057;-93
2022/09/14 20:46:36;;;;;;;4.00;2.45;;;19.70;99.90;;;;;;4755050;29;20155;-93
2022/09/14 20:49:12;;;;;;;5.85;2.97;;;19.70;99.90;;;;;;4765681;29;20066;-94
2022/09/14 20:51:40;;;;;;;5.63;2.50;;;19.80;99.90;;;;;;4772568;29;20405;-95
2022/09/14 20:54:11;;;;;;;5.03;2.60;;;19.80;99.90;;;;;;4767826;29;20052;-93
2022/09/14 20:56:38;;;;;;;5.72;2.42;;;19.80;99.90;;;;;;4754096;29;20134;-94
2022/09/14 20:59:10;;;;;;;3.55;2.22;;;19.80;99.90;;;;;;4780139;29;20051;-94
2022/09/14 21:01:39;;;;;;;6.68;2.50;;;19.80;99.90;;;;;;4764526;29;20580;-91
2022/09/14 21:04:10;;;;;;;3.58;2.30;;;19.80;99.90;;;;;;4768545;29;20051;-94
2022/09/14 21:06:40;;;;;;;4.85;2.35;;;19.80;99.90;;;;;;4765231;29;20152;-93
2022/09/14 21:09:09;;;;;;;4.68;2.45;;;19.70;99.90;;;;;;4749031;29;20076;-91
2022/09/14 21:11:37;;;;;;;3.25;2.60;;;19.70;99.90;;;;;;4756421;29;20055;-92
2022/09/14 21:14:05;;;;;;;5.32;2.10;;;19.70;99.90;;;;;;4767488;29;20070;-94
2022/09/14 21:16:36;;;;;;;2.78;2.13;;;19.70;99.90;;;;;;4754076;29;20517;-96
2022/09/14 21:19:06;;;;;;;3.75;2.35;;;19.70;99.90;;;;;;4755316;29;20050;-92
2022/09/14 21:21:34;;;;;;;6.20;2.72;;;19.70;99.90;;;;;;4768841;29;20043;-92
2022/09/14 21:24:04;;;;;;;2.85;2.03;;;19.70;99.90;;;;;;4754222;29;20066;-90
2022/09/14 21:26:34;;;;;;;7.15;2.17;;;19.70;99.90;;;;;;4765884;29;20039;-92
2022/09/14 21:29:14;;;;;;;2.45;2.25;;;19.70;99.90;;;;;;4751681;30;20096;-93
2022/09/14 21:31:42;;;;;;;7.72;2.72;;;19.70;99.90;;;;;;4754550;30;20209;-92
2022/09/14 21:34:10;;;;;;;4.53;1.95;;;19.70;99.90;;;;;;4753771;29;20138;-92
2022/09/14 21:36:44;;;;;;;2.97;1.63;;;19.70;99.90;;;;;;4756070;30;20050;-93
2022/09/14 21:39:15;;;;;;;3.97;1.98;;;19.70;99.90;;;;;;4753424;30;20051;-92
2022/09/14 21:41:43;;;;;;;2.17;1.90;;;19.70;99.90;;;;;;4766844;30;20504;-94
2022/09/14 21:44:12;;;;;;;3.05;2.00;;;19.70;99.90;;;;;;4755452;30;20101;-94
2022/09/14 21:46:41;;;;;;;2.90;1.95;;;19.70;99.90;;;;;;4769697;30;20065;-94
2022/09/14 21:49:14;;;;;;;4.93;1.63;;;19.70;99.90;;;;;;4755618;30;20422;-93
2022/09/14 21:51:42;;;;;;;2.75;1.75;;;19.70;99.90;;;;;;4771679;30;20055;-94
2022/09/14 21:54:11;;;;;;;3.83;2.22;;;19.80;99.90;;;;;;4755300;30;20138;-94
2022/09/14 21:56:41;;;;;;;3.97;2.20;;;19.80;99.90;;;;;;4774133;30;20048;-92
2022/09/14 21:59:18;;;;;;;3.30;1.70;;;19.80;99.90;;;;;;4756756;30;20066;-92
2022/09/14 22:01:46;;;;;;;3.05;1.80;;;19.80;99.90;;;;;;4768696;30;20541;-93
2022/09/14 22:04:17;;;;;;;2.60;1.70;;;19.70;99.90;;;;;;4767209;29;20051;-92
2022/09/14 22:06:45;;;;;;;3.72;1.48;;;19.70;99.90;;;;;;4771704;30;20417;-92
2022/09/14 22:09:15;;;;;;;2.10;1.42;;;19.70;99.90;;;;;;4756877;30;20146;-92
2022/09/14 22:11:44;;;;;;;3.83;1.45;;;19.70;99.90;;;;;;4751859;30;20079;-91
2022/09/14 22:14:17;;;;;;;4.32;1.90;;;19.70;99.90;;;;;;4771153;30;20055;-91
2022/09/14 22:16:45;;;;;;;3.05;1.40;;;19.70;99.90;;;;;;4759178;30;20066;-91
2022/09/14 22:19:22;;;;;;;3.28;1.20;;;19.70;99.90;;;;;;4756230;30;20047;-92
2022/09/14 22:21:50;;;;;;;4.82;1.70;;;19.60;99.90;;;;;;4755375;30;20052;-91
2022/09/14 22:24:30;;;;;;;5.53;1.80;;;19.60;99.90;;;;;;4753746;30;20047;-92
2022/09/14 22:27:06;;;;;;;2.83;1.83;;;19.50;99.90;;;;;;4772359;29;20047;-91
2022/09/14 22:29:33;;;;;;;4.95;1.73;;;19.50;99.90;;;;;;4762689;30;20047;-91
2022/09/14 22:32:04;;;;;;;3.95;2.05;;;19.50;99.90;;;;;;4759634;30;20523;-91
2022/09/14 22:34:33;;;;;;;2.30;1.42;;;19.50;99.90;;;;;;4767247;30;20592;-91
2022/09/14 22:37:01;;;;;;;3.00;1.90;;;19.50;99.90;;;;;;4755812;30;20529;-91
2022/09/14 22:39:28;;;;;;;4.28;1.70;;;19.50;99.90;;;;;;4752078;29;20047;-92
2022/09/14 22:41:56;;;;;;;4.28;1.70;;;19.50;99.90;;;;;;4752579;30;20070;-92
2022/09/14 22:44:23;;;;;;;3.42;2.13;;;19.50;99.90;;;;;;4758723;30;20051;-92
2022/09/14 22:46:50;;;;;;;3.35;1.67;;;19.50;99.90;;;;;;4753734;30;20654;-92
2022/09/14 22:49:18;;;;;;;3.03;1.67;;;19.50;99.90;;;;;;4754319;29;20058;-91
2022/09/14 22:51:46;;;;;;;8.20;1.88;;;19.50;99.90;;;;;;4756871;30;20580;-92
2022/09/14 22:54:13;;;;;;;3.15;2.00;;;19.50;99.90;;;;;;4762482;30;20112;-92
2022/09/14 22:56:41;;;;;;;5.13;1.58;;;19.50;99.90;;;;;;4759070;30;20151;-92
2022/09/14 22:59:09;;;;;;;2.20;1.60;;;19.50;99.90;;;;;;4769831;30;20066;-92
2022/09/14 23:01:40;;;;;;;2.85;1.50;;;19.50;99.90;;;;;;4786741;29;20068;-93